sensor_id;sensor_type;location;lat;lon;timestamp;P1;durP1;ratioP1;P2;durP2;ratioP2
75793;SDS011;64418;47.536;19.074;2023-12-22T00:00:01;6.12;;;3.92;;
75793;SDS011;64418;47.536;19.074;2023-12-22T00:02:27;7.30;;;3.25;;
75793;SDS011;64418;47.536;19.074;2023-12-22T00:04:53;5.87;;;3.42;;
75793;SDS011;64418;47.536;19.074;2023-12-22T00:07:24;6.20;;;3.42;;
75793;SDS011;64418;47.536;19.074;2023-12-22T00:09:51;6.23;;;2.97;;
75793;SDS011;64418;47.536;19.074;2023-12-22T00:12:23;7.75;;;3.33;;
75793;SDS011;64418;47.536;19.074;2023-12-22T00:14:48;6.03;;;3.90;;
75793;SDS011;64418;47.536;19.074;2023-12-22T00:17:15;5.43;;;3.17;;
75793;SDS011;64418;47.536;19.074;2023-12-22T00:19:41;5.68;;;3.37;;
75793;SDS011;64418;47.536;19.074;2023-12-22T00:22:07;4.72;;;3.20;;
75793;SDS011;64418;47.536;19.074;2023-12-22T00:24:32;6.67;;;3.40;;
75793;SDS011;64418;47.536;19.074;2023-12-22T00:27:00;6.15;;;3.60;;
75793;SDS011;64418;47.536;19.074;2023-12-22T00:29:25;5.93;;;3.60;;
75793;SDS011;64418;47.536;19.074;2023-12-22T00:31:52;6.13;;;3.87;;
75793;SDS011;64418;47.536;19.074;2023-12-22T00:34:18;7.75;;;3.92;;
75793;SDS011;64418;47.536;19.074;2023-12-22T00:36:44;7.75;;;4.22;;
75793;SDS011;64418;47.536;19.074;2023-12-22T00:39:09;7.68;;;4.15;;
75793;SDS011;64418;47.536;19.074;2023-12-22T00:41:35;11.03;;;4.07;;
75793;SDS011;64418;47.536;19.074;2023-12-22T00:44:03;7.65;;;4.43;;
75793;SDS011;64418;47.536;19.074;2023-12-22T00:46:29;9.30;;;4.35;;
75793;SDS011;64418;47.536;19.074;2023-12-22T00:48:54;8.33;;;4.90;;
75793;SDS011;64418;47.536;19.074;2023-12-22T00:51:40;8.10;;;5.05;;
75793;SDS011;64418;47.536;19.074;2023-12-22T00:54:06;9.27;;;4.87;;
75793;SDS011;64418;47.536;19.074;2023-12-22T00:56:31;7.73;;;4.60;;
75793;SDS011;64418;47.536;19.074;2023-12-22T00:58:57;10.27;;;5.20;;
75793;SDS011;64418;47.536;19.074;2023-12-22T01:01:25;8.77;;;5.10;;
75793;SDS011;64418;47.536;19.074;2023-12-22T01:03:50;9.47;;;4.27;;
75793;SDS011;64418;47.536;19.074;2023-12-22T01:06:16;9.65;;;5.00;;
75793;SDS011;64418;47.536;19.074;2023-12-22T01:08:42;7.53;;;4.28;;
75793;SDS011;64418;47.536;19.074;2023-12-22T01:11:08;8.93;;;4.80;;
75793;SDS011;64418;47.536;19.074;2023-12-22T01:13:34;6.57;;;3.70;;
75793;SDS011;64418;47.536;19.074;2023-12-22T01:16:00;6.45;;;4.15;;
75793;SDS011;64418;47.536;19.074;2023-12-22T01:18:28;7.60;;;4.07;;
75793;SDS011;64418;47.536;19.074;2023-12-22T01:20:54;5.80;;;3.60;;
75793;SDS011;64418;47.536;19.074;2023-12-22T01:23:19;5.60;;;3.10;;
75793;SDS011;64418;47.536;19.074;2023-12-22T01:25:45;5.18;;;2.67;;
75793;SDS011;64418;47.536;19.074;2023-12-22T01:28:11;4.30;;;2.63;;
75793;SDS011;64418;47.536;19.074;2023-12-22T01:30:37;5.80;;;3.28;;
75793;SDS011;64418;47.536;19.074;2023-12-22T01:33:03;4.62;;;3.08;;
75793;SDS011;64418;47.536;19.074;2023-12-22T01:35:30;4.25;;;2.80;;
75793;SDS011;64418;47.536;19.074;2023-12-22T01:37:56;5.50;;;2.58;;
75793;SDS011;64418;47.536;19.074;2023-12-22T01:40:22;5.83;;;2.53;;
75793;SDS011;64418;47.536;19.074;2023-12-22T01:42:47;4.95;;;2.83;;
75793;SDS011;64418;47.536;19.074;2023-12-22T01:45:13;5.20;;;2.90;;
75793;SDS011;64418;47.536;19.074;2023-12-22T01:47:39;5.28;;;2.65;;
75793;SDS011;64418;47.536;19.074;2023-12-22T01:50:07;4.75;;;2.40;;
75793;SDS011;64418;47.536;19.074;2023-12-22T01:52:39;4.80;;;2.75;;
75793;SDS011;64418;47.536;19.074;2023-12-22T01:55:07;2.20;;;1.37;;
75793;SDS011;64418;47.536;19.074;2023-12-22T01:57:36;5.18;;;1.77;;
75793;SDS011;64418;47.536;19.074;2023-12-22T02:00:02;2.55;;;1.35;;
75793;SDS011;64418;47.536;19.074;2023-12-22T02:02:29;1.80;;;1.20;;
75793;SDS011;64418;47.536;19.074;2023-12-22T02:04:55;2.92;;;1.30;;
75793;SDS011;64418;47.536;19.074;2023-12-22T02:07:22;2.73;;;0.80;;
75793;SDS011;64418;47.536;19.074;2023-12-22T02:09:49;2.78;;;1.35;;
75793;SDS011;64418;47.536;19.074;2023-12-22T02:12:15;1.85;;;1.08;;
75793;SDS011;64418;47.536;19.074;2023-12-22T02:14:41;2.40;;;1.10;;
75793;SDS011;64418;47.536;19.074;2023-12-22T02:17:10;1.80;;;0.90;;
75793;SDS011;64418;47.536;19.074;2023-12-22T02:19:43;2.08;;;0.80;;
75793;SDS011;64418;47.536;19.074;2023-12-22T02:22:11;2.62;;;0.82;;
75793;SDS011;64418;47.536;19.074;2023-12-22T02:24:39;2.47;;;0.93;;
75793;SDS011;64418;47.536;19.074;2023-12-22T02:27:06;5.20;;;1.40;;
75793;SDS011;64418;47.536;19.074;2023-12-22T02:29:41;3.67;;;1.67;;
75793;SDS011;64418;47.536;19.074;2023-12-22T02:32:12;4.10;;;0.70;;
75793;SDS011;64418;47.536;19.074;2023-12-22T02:34:42;0.85;;;0.50;;
75793;SDS011;64418;47.536;19.074;2023-12-22T02:37:10;0.82;;;0.60;;
75793;SDS011;64418;47.536;19.074;2023-12-22T02:39:36;0.97;;;0.50;;
75793;SDS011;64418;47.536;19.074;2023-12-22T02:42:05;0.75;;;0.50;;
75793;SDS011;64418;47.536;19.074;2023-12-22T02:44:31;1.08;;;0.68;;
75793;SDS011;64418;47.536;19.074;2023-12-22T02:46:57;1.65;;;0.73;;
75793;SDS011;64418;47.536;19.074;2023-12-22T02:49:23;0.80;;;0.53;;
75793;SDS011;64418;47.536;19.074;2023-12-22T02:51:49;0.80;;;0.60;;
75793;SDS011;64418;47.536;19.074;2023-12-22T02:54:14;1.55;;;0.57;;
75793;SDS011;64418;47.536;19.074;2023-12-22T02:56:40;1.40;;;0.70;;
75793;SDS011;64418;47.536;19.074;2023-12-22T02:59:07;1.42;;;0.75;;
75793;SDS011;64418;47.536;19.074;2023-12-22T03:01:33;3.28;;;0.90;;
75793;SDS011;64418;47.536;19.074;2023-12-22T03:03:59;1.97;;;0.73;;
75793;SDS011;64418;47.536;19.074;2023-12-22T03:06:25;2.45;;;0.88;;
75793;SDS011;64418;47.536;19.074;2023-12-22T03:08:51;1.75;;;0.80;;
75793;SDS011;64418;47.536;19.074;2023-12-22T03:11:17;1.27;;;0.77;;
75793;SDS011;64418;47.536;19.074;2023-12-22T03:13:42;1.77;;;0.98;;
75793;SDS011;64418;47.536;19.074;2023-12-22T03:16:09;1.15;;;0.90;;
75793;SDS011;64418;47.536;19.074;2023-12-22T03:18:37;2.73;;;0.80;;
75793;SDS011;64418;47.536;19.074;2023-12-22T03:21:03;2.10;;;0.73;;
75793;SDS011;64418;47.536;19.074;2023-12-22T03:23:29;1.62;;;0.80;;
75793;SDS011;64418;47.536;19.074;2023-12-22T03:25:55;0.80;;;0.57;;
75793;SDS011;64418;47.536;19.074;2023-12-22T03:28:20;7.07;;;0.93;;
75793;SDS011;64418;47.536;19.074;2023-12-22T03:30:46;1.43;;;0.53;;
75793;SDS011;64418;47.536;19.074;2023-12-22T03:33:13;0.70;;;0.40;;
75793;SDS011;64418;47.536;19.074;2023-12-22T03:35:39;2.45;;;0.40;;
75793;SDS011;64418;47.536;19.074;2023-12-22T03:38:05;0.82;;;0.45;;
75793;SDS011;64418;47.536;19.074;2023-12-22T03:40:31;1.80;;;0.40;;
75793;SDS011;64418;47.536;19.074;2023-12-22T03:42:57;0.32;;;0.20;;
75793;SDS011;64418;47.536;19.074;2023-12-22T03:45:23;0.65;;;0.30;;
75793;SDS011;64418;47.536;19.074;2023-12-22T03:47:48;0.90;;;0.33;;
75793;SDS011;64418;47.536;19.074;2023-12-22T03:50:16;0.62;;;0.40;;
75793;SDS011;64418;47.536;19.074;2023-12-22T03:52:41;1.05;;;0.40;;
75793;SDS011;64418;47.536;19.074;2023-12-22T03:55:07;0.53;;;0.30;;
75793;SDS011;64418;47.536;19.074;2023-12-22T03:57:34;1.45;;;0.50;;
75793;SDS011;64418;47.536;19.074;2023-12-22T03:59:59;2.78;;;0.52;;
75793;SDS011;64418;47.536;19.074;2023-12-22T04:02:25;1.07;;;0.50;;
75793;SDS011;64418;47.536;19.074;2023-12-22T04:04:51;2.15;;;0.37;;
75793;SDS011;64418;47.536;19.074;2023-12-22T04:07:18;1.67;;;0.52;;
75793;SDS011;64418;47.536;19.074;2023-12-22T04:09:44;1.60;;;0.43;;
75793;SDS011;64418;47.536;19.074;2023-12-22T04:12:10;0.57;;;0.45;;
75793;SDS011;64418;47.536;19.074;2023-12-22T04:14:36;4.30;;;0.50;;
75793;SDS011;64418;47.536;19.074;2023-12-22T04:17:21;1.90;;;0.43;;
75793;SDS011;64418;47.536;19.074;2023-12-22T04:19:47;1.10;;;0.35;;
75793;SDS011;64418;47.536;19.074;2023-12-22T04:22:13;1.65;;;0.60;;
75793;SDS011;64418;47.536;19.074;2023-12-22T04:24:41;2.03;;;0.57;;
75793;SDS011;64418;47.536;19.074;2023-12-22T04:27:07;3.03;;;0.70;;
75793;SDS011;64418;47.536;19.074;2023-12-22T04:29:33;1.25;;;0.50;;
75793;SDS011;64418;47.536;19.074;2023-12-22T04:32:19;1.20;;;0.50;;
75793;SDS011;64418;47.536;19.074;2023-12-22T04:34:45;6.43;;;0.70;;
75793;SDS011;64418;47.536;19.074;2023-12-22T04:37:31;1.25;;;0.57;;
75793;SDS011;64418;47.536;19.074;2023-12-22T04:39:59;1.90;;;0.43;;
75793;SDS011;64418;47.536;19.074;2023-12-22T04:42:24;2.58;;;0.40;;
75793;SDS011;64418;47.536;19.074;2023-12-22T04:44:50;0.93;;;0.43;;
75793;SDS011;64418;47.536;19.074;2023-12-22T04:47:16;1.70;;;0.37;;
75793;SDS011;64418;47.536;19.074;2023-12-22T04:49:42;0.30;;;0.30;;
75793;SDS011;64418;47.536;19.074;2023-12-22T04:52:09;0.60;;;0.40;;
75793;SDS011;64418;47.536;19.074;2023-12-22T04:54:35;1.12;;;0.40;;
75793;SDS011;64418;47.536;19.074;2023-12-22T04:57:03;0.97;;;0.50;;
75793;SDS011;64418;47.536;19.074;2023-12-22T04:59:29;1.67;;;0.45;;
75793;SDS011;64418;47.536;19.074;2023-12-22T05:01:54;1.70;;;0.55;;
75793;SDS011;64418;47.536;19.074;2023-12-22T05:04:20;6.47;;;2.37;;
75793;SDS011;64418;47.536;19.074;2023-12-22T05:06:47;7.72;;;1.60;;
75793;SDS011;64418;47.536;19.074;2023-12-22T05:09:12;1.55;;;0.80;;
75793;SDS011;64418;47.536;19.074;2023-12-22T05:11:38;2.60;;;0.50;;
75793;SDS011;64418;47.536;19.074;2023-12-22T05:14:06;1.40;;;0.33;;
75793;SDS011;64418;47.536;19.074;2023-12-22T05:16:31;1.23;;;0.40;;
75793;SDS011;64418;47.536;19.074;2023-12-22T05:18:57;1.10;;;0.40;;
75793;SDS011;64418;47.536;19.074;2023-12-22T05:21:23;1.50;;;0.50;;
75793;SDS011;64418;47.536;19.074;2023-12-22T05:23:49;0.30;;;0.30;;
75793;SDS011;64418;47.536;19.074;2023-12-22T05:26:16;0.65;;;0.45;;
75793;SDS011;64418;47.536;19.074;2023-12-22T05:28:42;2.77;;;0.70;;
75793;SDS011;64418;47.536;19.074;2023-12-22T05:31:09;2.30;;;1.25;;
75793;SDS011;64418;47.536;19.074;2023-12-22T05:33:35;1.00;;;0.73;;
75793;SDS011;64418;47.536;19.074;2023-12-22T05:36:01;1.80;;;0.80;;
75793;SDS011;64418;47.536;19.074;2023-12-22T05:38:27;3.62;;;0.82;;
75793;SDS011;64418;47.536;19.074;2023-12-22T05:40:52;4.18;;;1.00;;
75793;SDS011;64418;47.536;19.074;2023-12-22T05:43:18;1.23;;;0.70;;
75793;SDS011;64418;47.536;19.074;2023-12-22T05:45:44;1.42;;;0.50;;
75793;SDS011;64418;47.536;19.074;2023-12-22T05:48:12;4.10;;;0.98;;
75793;SDS011;64418;47.536;19.074;2023-12-22T05:50:37;3.87;;;1.47;;
75793;SDS011;64418;47.536;19.074;2023-12-22T05:53:03;5.10;;;2.08;;
75793;SDS011;64418;47.536;19.074;2023-12-22T05:55:30;4.20;;;1.30;;
75793;SDS011;64418;47.536;19.074;2023-12-22T05:57:56;3.90;;;2.07;;
75793;SDS011;64418;47.536;19.074;2023-12-22T06:00:22;2.08;;;0.95;;
75793;SDS011;64418;47.536;19.074;2023-12-22T06:02:47;2.37;;;0.70;;
75793;SDS011;64418;47.536;19.074;2023-12-22T06:05:15;1.87;;;0.67;;
75793;SDS011;64418;47.536;19.074;2023-12-22T06:07:41;8.25;;;1.15;;
75793;SDS011;64418;47.536;19.074;2023-12-22T06:10:07;1.83;;;0.73;;
75793;SDS011;64418;47.536;19.074;2023-12-22T06:12:53;5.60;;;0.93;;
75793;SDS011;64418;47.536;19.074;2023-12-22T06:15:19;0.90;;;0.40;;
75793;SDS011;64418;47.536;19.074;2023-12-22T06:17:45;2.45;;;0.80;;
75793;SDS011;64418;47.536;19.074;2023-12-22T06:20:32;2.67;;;0.62;;
75793;SDS011;64418;47.536;19.074;2023-12-22T06:22:58;12.60;;;1.17;;
75793;SDS011;64418;47.536;19.074;2023-12-22T06:25:24;4.40;;;0.80;;
75793;SDS011;64418;47.536;19.074;2023-12-22T06:28:09;2.53;;;0.90;;
75793;SDS011;64418;47.536;19.074;2023-12-22T06:30:35;1.27;;;0.60;;
75793;SDS011;64418;47.536;19.074;2023-12-22T06:33:22;2.25;;;0.80;;
75793;SDS011;64418;47.536;19.074;2023-12-22T06:35:49;6.33;;;1.47;;
75793;SDS011;64418;47.536;19.074;2023-12-22T06:38:16;3.80;;;1.02;;
75793;SDS011;64418;47.536;19.074;2023-12-22T06:41:02;3.15;;;0.80;;
75793;SDS011;64418;47.536;19.074;2023-12-22T06:43:29;3.60;;;1.05;;
75793;SDS011;64418;47.536;19.074;2023-12-22T06:45:55;2.67;;;0.50;;
75793;SDS011;64418;47.536;19.074;2023-12-22T06:48:41;1.63;;;0.70;;
75793;SDS011;64418;47.536;19.074;2023-12-22T06:51:11;1.67;;;0.60;;
75793;SDS011;64418;47.536;19.074;2023-12-22T06:53:42;3.45;;;0.70;;
75793;SDS011;64418;47.536;19.074;2023-12-22T06:56:14;4.97;;;0.70;;
75793;SDS011;64418;47.536;19.074;2023-12-22T06:59:02;3.00;;;0.75;;
75793;SDS011;64418;47.536;19.074;2023-12-22T07:01:29;3.03;;;0.75;;
75793;SDS011;64418;47.536;19.074;2023-12-22T07:03:56;3.50;;;0.60;;
75793;SDS011;64418;47.536;19.074;2023-12-22T07:06:44;1.67;;;0.57;;
75793;SDS011;64418;47.536;19.074;2023-12-22T07:09:30;4.37;;;0.50;;
75793;SDS011;64418;47.536;19.074;2023-12-22T07:11:57;2.55;;;0.60;;
75793;SDS011;64418;47.536;19.074;2023-12-22T07:14:43;2.10;;;0.60;;
75793;SDS011;64418;47.536;19.074;2023-12-22T07:17:10;1.92;;;0.47;;
75793;SDS011;64418;47.536;19.074;2023-12-22T07:19:36;2.17;;;0.80;;
75793;SDS011;64418;47.536;19.074;2023-12-22T07:22:24;5.60;;;0.80;;
75793;SDS011;64418;47.536;19.074;2023-12-22T07:25:10;4.80;;;0.70;;
75793;SDS011;64418;47.536;19.074;2023-12-22T07:27:36;2.65;;;0.80;;
75793;SDS011;64418;47.536;19.074;2023-12-22T07:30:22;2.50;;;0.70;;
75793;SDS011;64418;47.536;19.074;2023-12-22T07:32:49;2.67;;;0.40;;
75793;SDS011;64418;47.536;19.074;2023-12-22T07:35:16;3.50;;;0.60;;
75793;SDS011;64418;47.536;19.074;2023-12-22T07:37:43;2.25;;;0.65;;
75793;SDS011;64418;47.536;19.074;2023-12-22T07:40:30;4.65;;;0.80;;
75793;SDS011;64418;47.536;19.074;2023-12-22T07:42:56;1.62;;;0.75;;
75793;SDS011;64418;47.536;19.074;2023-12-22T07:45:24;2.20;;;0.75;;
75793;SDS011;64418;47.536;19.074;2023-12-22T07:47:51;2.73;;;0.57;;
75793;SDS011;64418;47.536;19.074;2023-12-22T07:50:17;3.17;;;0.50;;
75793;SDS011;64418;47.536;19.074;2023-12-22T07:52:46;1.98;;;0.70;;
75793;SDS011;64418;47.536;19.074;2023-12-22T07:57:22;2.47;;;0.50;;
75793;SDS011;64418;47.536;19.074;2023-12-22T07:58:02;2.50;;;0.60;;
75793;SDS011;64418;47.536;19.074;2023-12-22T08:00:40;1.80;;;0.40;;
75793;SDS011;64418;47.536;19.074;2023-12-22T08:03:08;3.78;;;0.60;;
75793;SDS011;64418;47.536;19.074;2023-12-22T08:05:36;1.70;;;0.60;;
75793;SDS011;64418;47.536;19.074;2023-12-22T08:08:09;1.92;;;0.60;;
75793;SDS011;64418;47.536;19.074;2023-12-22T08:10:35;3.95;;;0.93;;
75793;SDS011;64418;47.536;19.074;2023-12-22T08:13:01;3.37;;;0.60;;
75793;SDS011;64418;47.536;19.074;2023-12-22T08:15:27;2.42;;;0.62;;
75793;SDS011;64418;47.536;19.074;2023-12-22T08:18:13;2.95;;;0.68;;
75793;SDS011;64418;47.536;19.074;2023-12-22T08:20:40;4.72;;;0.68;;
75793;SDS011;64418;47.536;19.074;2023-12-22T08:23:05;2.67;;;1.08;;
75793;SDS011;64418;47.536;19.074;2023-12-22T08:25:53;5.90;;;1.27;;
75793;SDS011;64418;47.536;19.074;2023-12-22T08:28:19;2.05;;;0.60;;
75793;SDS011;64418;47.536;19.074;2023-12-22T08:30:45;4.62;;;0.88;;
75793;SDS011;64418;47.536;19.074;2023-12-22T08:33:32;4.07;;;0.60;;
75793;SDS011;64418;47.536;19.074;2023-12-22T08:35:58;1.85;;;0.55;;
75793;SDS011;64418;47.536;19.074;2023-12-22T08:38:24;3.20;;;0.87;;
75793;SDS011;64418;47.536;19.074;2023-12-22T08:41:13;3.42;;;0.80;;
75793;SDS011;64418;47.536;19.074;2023-12-22T08:43:40;4.10;;;0.90;;
75793;SDS011;64418;47.536;19.074;2023-12-22T08:46:07;4.57;;;0.80;;
75793;SDS011;64418;47.536;19.074;2023-12-22T08:48:53;3.45;;;0.75;;
75793;SDS011;64418;47.536;19.074;2023-12-22T08:51:20;1.77;;;0.80;;
75793;SDS011;64418;47.536;19.074;2023-12-22T08:53:46;4.55;;;0.90;;
75793;SDS011;64418;47.536;19.074;2023-12-22T08:56:34;6.15;;;1.05;;
75793;SDS011;64418;47.536;19.074;2023-12-22T08:59:00;4.28;;;0.70;;
75793;SDS011;64418;47.536;19.074;2023-12-22T09:01:26;3.12;;;0.60;;
75793;SDS011;64418;47.536;19.074;2023-12-22T09:04:12;4.43;;;0.60;;
75793;SDS011;64418;47.536;19.074;2023-12-22T09:06:39;1.40;;;0.55;;
75793;SDS011;64418;47.536;19.074;2023-12-22T09:09:05;3.33;;;0.75;;
75793;SDS011;64418;47.536;19.074;2023-12-22T09:11:53;2.67;;;0.60;;
75793;SDS011;64418;47.536;19.074;2023-12-22T09:14:19;2.22;;;0.50;;
75793;SDS011;64418;47.536;19.074;2023-12-22T09:16:45;4.07;;;0.70;;
75793;SDS011;64418;47.536;19.074;2023-12-22T09:19:31;4.85;;;0.77;;
75793;SDS011;64418;47.536;19.074;2023-12-22T09:21:57;2.25;;;0.70;;
75793;SDS011;64418;47.536;19.074;2023-12-22T09:24:24;2.53;;;1.12;;
75793;SDS011;64418;47.536;19.074;2023-12-22T09:27:12;2.87;;;0.98;;
75793;SDS011;64418;47.536;19.074;2023-12-22T09:29:38;1.43;;;0.80;;
75793;SDS011;64418;47.536;19.074;2023-12-22T09:32:24;2.40;;;0.80;;
75793;SDS011;64418;47.536;19.074;2023-12-22T09:35:11;1.80;;;0.50;;
75793;SDS011;64418;47.536;19.074;2023-12-22T09:37:38;5.72;;;0.90;;
75793;SDS011;64418;47.536;19.074;2023-12-22T09:40:06;3.58;;;0.60;;
75793;SDS011;64418;47.536;19.074;2023-12-22T09:42:57;2.07;;;1.00;;
75793;SDS011;64418;47.536;19.074;2023-12-22T09:45:25;2.00;;;0.70;;
75793;SDS011;64418;47.536;19.074;2023-12-22T09:48:11;2.15;;;0.60;;
75793;SDS011;64418;47.536;19.074;2023-12-22T09:50:38;1.60;;;0.50;;
75793;SDS011;64418;47.536;19.074;2023-12-22T09:53:07;2.28;;;0.55;;
75793;SDS011;64418;47.536;19.074;2023-12-22T09:55:34;4.47;;;1.23;;
75793;SDS011;64418;47.536;19.074;2023-12-22T09:58:02;1.60;;;0.50;;
75793;SDS011;64418;47.536;19.074;2023-12-22T10:00:51;1.65;;;0.77;;
75793;SDS011;64418;47.536;19.074;2023-12-22T10:03:19;2.22;;;0.45;;
75793;SDS011;64418;47.536;19.074;2023-12-22T10:05:46;1.50;;;0.60;;
75793;SDS011;64418;47.536;19.074;2023-12-22T10:08:33;3.03;;;0.77;;
75793;SDS011;64418;47.536;19.074;2023-12-22T10:11:20;2.37;;;0.70;;
75793;SDS011;64418;47.536;19.074;2023-12-22T10:13:51;1.50;;;0.55;;
75793;SDS011;64418;47.536;19.074;2023-12-22T10:16:19;2.40;;;0.80;;
75793;SDS011;64418;47.536;19.074;2023-12-22T10:18:45;2.47;;;0.80;;
75793;SDS011;64418;47.536;19.074;2023-12-22T10:21:32;1.63;;;0.70;;
75793;SDS011;64418;47.536;19.074;2023-12-22T10:23:58;3.30;;;0.70;;
75793;SDS011;64418;47.536;19.074;2023-12-22T10:26:24;2.95;;;0.80;;
75793;SDS011;64418;47.536;19.074;2023-12-22T10:29:13;1.95;;;0.65;;
75793;SDS011;64418;47.536;19.074;2023-12-22T10:31:40;2.25;;;0.43;;
75793;SDS011;64418;47.536;19.074;2023-12-22T10:34:27;1.33;;;0.50;;
75793;SDS011;64418;47.536;19.074;2023-12-22T10:36:53;3.03;;;0.70;;
75793;SDS011;64418;47.536;19.074;2023-12-22T10:39:18;1.73;;;0.40;;
75793;SDS011;64418;47.536;19.074;2023-12-22T10:41:46;3.15;;;0.52;;
75793;SDS011;64418;47.536;19.074;2023-12-22T10:44:16;0.50;;;0.40;;
75793;SDS011;64418;47.536;19.074;2023-12-22T10:46:42;1.30;;;0.60;;
75793;SDS011;64418;47.536;19.074;2023-12-22T10:49:08;3.53;;;0.70;;
75793;SDS011;64418;47.536;19.074;2023-12-22T10:51:34;1.62;;;0.50;;
75793;SDS011;64418;47.536;19.074;2023-12-22T10:54:00;2.33;;;0.50;;
75793;SDS011;64418;47.536;19.074;2023-12-22T10:56:26;2.43;;;0.60;;
75793;SDS011;64418;47.536;19.074;2023-12-22T10:58:52;2.33;;;0.85;;
75793;SDS011;64418;47.536;19.074;2023-12-22T11:01:24;3.47;;;1.10;;
75793;SDS011;64418;47.536;19.074;2023-12-22T11:03:54;2.28;;;0.80;;
75793;SDS011;64418;47.536;19.074;2023-12-22T11:06:26;5.25;;;0.77;;
75793;SDS011;64418;47.536;19.074;2023-12-22T11:08:55;1.93;;;0.70;;
75793;SDS011;64418;47.536;19.074;2023-12-22T11:11:25;1.15;;;0.50;;
75793;SDS011;64418;47.536;19.074;2023-12-22T11:13:56;3.50;;;0.88;;
75793;SDS011;64418;47.536;19.074;2023-12-22T11:16:24;1.25;;;0.70;;
75793;SDS011;64418;47.536;19.074;2023-12-22T11:18:54;4.00;;;0.60;;
75793;SDS011;64418;47.536;19.074;2023-12-22T11:21:21;1.20;;;0.70;;
75793;SDS011;64418;47.536;19.074;2023-12-22T11:23:48;1.45;;;0.60;;
75793;SDS011;64418;47.536;19.074;2023-12-22T11:26:15;1.75;;;0.50;;
75793;SDS011;64418;47.536;19.074;2023-12-22T11:28:45;1.25;;;0.62;;
75793;SDS011;64418;47.536;19.074;2023-12-22T11:31:11;0.90;;;0.40;;
75793;SDS011;64418;47.536;19.074;2023-12-22T11:33:39;1.53;;;0.77;;
75793;SDS011;64418;47.536;19.074;2023-12-22T11:36:09;3.03;;;0.70;;
75793;SDS011;64418;47.536;19.074;2023-12-22T11:38:36;2.95;;;0.55;;
75793;SDS011;64418;47.536;19.074;2023-12-22T11:41:03;0.95;;;0.50;;
75793;SDS011;64418;47.536;19.074;2023-12-22T11:43:31;2.55;;;0.98;;
75793;SDS011;64418;47.536;19.074;2023-12-22T11:46:01;1.80;;;0.57;;
75793;SDS011;64418;47.536;19.074;2023-12-22T11:48:29;2.95;;;0.60;;
75793;SDS011;64418;47.536;19.074;2023-12-22T11:50:58;1.17;;;0.50;;
75793;SDS011;64418;47.536;19.074;2023-12-22T11:53:27;2.12;;;0.50;;
75793;SDS011;64418;47.536;19.074;2023-12-22T11:56:00;1.62;;;0.60;;
75793;SDS011;64418;47.536;19.074;2023-12-22T11:58:33;3.50;;;0.70;;
75793;SDS011;64418;47.536;19.074;2023-12-22T12:01:05;1.05;;;0.50;;
75793;SDS011;64418;47.536;19.074;2023-12-22T12:03:35;2.53;;;0.55;;
75793;SDS011;64418;47.536;19.074;2023-12-22T12:08:59;1.75;;;0.65;;
75793;SDS011;64418;47.536;19.074;2023-12-22T12:14:37;2.00;;;0.52;;
75793;SDS011;64418;47.536;19.074;2023-12-22T12:17:07;2.65;;;0.60;;
75793;SDS011;64418;47.536;19.074;2023-12-22T12:19:36;2.33;;;0.62;;
75793;SDS011;64418;47.536;19.074;2023-12-22T12:22:05;2.00;;;0.70;;
75793;SDS011;64418;47.536;19.074;2023-12-22T12:24:31;2.47;;;0.70;;
75793;SDS011;64418;47.536;19.074;2023-12-22T12:26:57;10.48;;;5.00;;
75793;SDS011;64418;47.536;19.074;2023-12-22T12:29:23;15.63;;;8.23;;
75793;SDS011;64418;47.536;19.074;2023-12-22T12:31:50;20.33;;;7.53;;
75793;SDS011;64418;47.536;19.074;2023-12-22T12:34:17;6.67;;;1.87;;
75793;SDS011;64418;47.536;19.074;2023-12-22T12:36:43;5.03;;;2.30;;
75793;SDS011;64418;47.536;19.074;2023-12-22T12:39:14;4.12;;;2.33;;
75793;SDS011;64418;47.536;19.074;2023-12-22T12:41:41;3.95;;;0.70;;
75793;SDS011;64418;47.536;19.074;2023-12-22T12:44:08;1.52;;;0.80;;
75793;SDS011;64418;47.536;19.074;2023-12-22T12:46:34;1.47;;;0.90;;
75793;SDS011;64418;47.536;19.074;2023-12-22T12:49:04;4.53;;;0.80;;
75793;SDS011;64418;47.536;19.074;2023-12-22T12:51:35;0.50;;;0.30;;
75793;SDS011;64418;47.536;19.074;2023-12-22T12:54:02;3.97;;;0.70;;
75793;SDS011;64418;47.536;19.074;2023-12-22T12:56:30;1.15;;;0.40;;
75793;SDS011;64418;47.536;19.074;2023-12-22T12:59:06;3.10;;;0.60;;
75793;SDS011;64418;47.536;19.074;2023-12-22T13:01:37;1.30;;;0.60;;
75793;SDS011;64418;47.536;19.074;2023-12-22T13:04:04;4.43;;;0.70;;
75793;SDS011;64418;47.536;19.074;2023-12-22T13:06:30;1.65;;;0.40;;
75793;SDS011;64418;47.536;19.074;2023-12-22T13:08:56;5.18;;;0.50;;
75793;SDS011;64418;47.536;19.074;2023-12-22T13:11:22;0.87;;;0.50;;
75793;SDS011;64418;47.536;19.074;2023-12-22T13:13:51;1.62;;;0.50;;
75793;SDS011;64418;47.536;19.074;2023-12-22T13:16:17;1.12;;;0.40;;
75793;SDS011;64418;47.536;19.074;2023-12-22T13:18:47;0.80;;;0.50;;
75793;SDS011;64418;47.536;19.074;2023-12-22T13:21:14;2.27;;;0.53;;
75793;SDS011;64418;47.536;19.074;2023-12-22T13:23:40;1.70;;;0.50;;
75793;SDS011;64418;47.536;19.074;2023-12-22T13:26:17;1.85;;;0.50;;
75793;SDS011;64418;47.536;19.074;2023-12-22T13:28:44;3.00;;;0.60;;
75793;SDS011;64418;47.536;19.074;2023-12-22T13:31:14;1.67;;;0.45;;
75793;SDS011;64418;47.536;19.074;2023-12-22T13:33:41;1.63;;;0.50;;
75793;SDS011;64418;47.536;19.074;2023-12-22T13:36:12;1.42;;;0.50;;
75793;SDS011;64418;47.536;19.074;2023-12-22T13:38:48;0.88;;;0.40;;
75793;SDS011;64418;47.536;19.074;2023-12-22T13:41:22;2.22;;;0.57;;
75793;SDS011;64418;47.536;19.074;2023-12-22T13:43:55;1.62;;;0.57;;
75793;SDS011;64418;47.536;19.074;2023-12-22T13:46:23;1.43;;;0.53;;
75793;SDS011;64418;47.536;19.074;2023-12-22T13:48:53;1.58;;;0.77;;
75793;SDS011;64418;47.536;19.074;2023-12-22T13:51:20;1.87;;;0.40;;
75793;SDS011;64418;47.536;19.074;2023-12-22T13:53:49;2.42;;;0.70;;
75793;SDS011;64418;47.536;19.074;2023-12-22T13:56:16;2.95;;;0.60;;
75793;SDS011;64418;47.536;19.074;2023-12-22T13:58:45;2.03;;;0.70;;
75793;SDS011;64418;47.536;19.074;2023-12-22T14:01:12;0.73;;;0.40;;
75793;SDS011;64418;47.536;19.074;2023-12-22T14:03:42;1.73;;;0.57;;
75793;SDS011;64418;47.536;19.074;2023-12-22T14:06:08;1.55;;;0.60;;
75793;SDS011;64418;47.536;19.074;2023-12-22T14:08:34;2.20;;;0.50;;
75793;SDS011;64418;47.536;19.074;2023-12-22T14:11:01;1.03;;;0.47;;
75793;SDS011;64418;47.536;19.074;2023-12-22T14:13:27;0.62;;;0.40;;
75793;SDS011;64418;47.536;19.074;2023-12-22T14:15:53;1.67;;;0.85;;
75793;SDS011;64418;47.536;19.074;2023-12-22T14:18:19;0.80;;;0.50;;
75793;SDS011;64418;47.536;19.074;2023-12-22T14:20:49;1.15;;;0.40;;
75793;SDS011;64418;47.536;19.074;2023-12-22T14:23:15;0.60;;;0.40;;
75793;SDS011;64418;47.536;19.074;2023-12-22T14:25:40;0.50;;;0.40;;
75793;SDS011;64418;47.536;19.074;2023-12-22T14:28:07;0.40;;;0.30;;
75793;SDS011;64418;47.536;19.074;2023-12-22T14:30:33;0.50;;;0.40;;
75793;SDS011;64418;47.536;19.074;2023-12-22T14:32:58;0.87;;;0.40;;
75793;SDS011;64418;47.536;19.074;2023-12-22T14:35:25;3.05;;;0.60;;
75793;SDS011;64418;47.536;19.074;2023-12-22T14:37:53;0.65;;;0.40;;
75793;SDS011;64418;47.536;19.074;2023-12-22T14:40:18;0.40;;;0.40;;
75793;SDS011;64418;47.536;19.074;2023-12-22T14:42:44;2.00;;;0.50;;
75793;SDS011;64418;47.536;19.074;2023-12-22T14:45:10;1.17;;;0.50;;
75793;SDS011;64418;47.536;19.074;2023-12-22T14:47:36;3.28;;;2.30;;
75793;SDS011;64418;47.536;19.074;2023-12-22T14:50:02;10.83;;;2.40;;